sensor_id;sensor_type;location;lat;lon;timestamp;temperature;humidity
5172;DHT22;2605;49.770;9.868;2022-09-09T00:04:41;14.70;99.90
5172;DHT22;2605;49.770;9.868;2022-09-09T00:08:07;14.70;99.90
5172;DHT22;2605;49.770;9.868;2022-09-09T00:10:19;14.70;99.90
5172;DHT22;2605;49.770;9.868;2022-09-09T00:13:06;14.80;99.90
5172;DHT22;2605;49.770;9.868;2022-09-09T00:18:29;15.00;99.90
5172;DHT22;2605;49.770;9.868;2022-09-09T00:21:15;15.10;99.90
5172;DHT22;2605;49.770;9.868;2022-09-09T00:23:54;15.20;99.90
5172;DHT22;2605;49.770;9.868;2022-09-09T00:26:38;15.30;99.90
5172;DHT22;2605;49.770;9.868;2022-09-09T00:32:07;15.20;99.90
5172;DHT22;2605;49.770;9.868;2022-09-09T00:34:39;15.00;99.90
5172;DHT22;2605;49.770;9.868;2022-09-09T00:37:08;14.90;99.90
5172;DHT22;2605;49.770;9.868;2022-09-09T00:39:38;14.80;99.90
5172;DHT22;2605;49.770;9.868;2022-09-09T00:42:22;14.70;99.90
5172;DHT22;2605;49.770;9.868;2022-09-09T00:47:39;14.60;99.90
5172;DHT22;2605;49.770;9.868;2022-09-09T00:50:51;14.60;99.90
5172;DHT22;2605;49.770;9.868;2022-09-09T00:53:38;14.60;99.90
5172;DHT22;2605;49.770;9.868;2022-09-09T00:56:18;14.60;99.90
5172;DHT22;2605;49.770;9.868;2022-09-09T00:59:07;14.70;99.90
5172;DHT22;2605;49.770;9.868;2022-09-09T01:01:37;14.70;99.90
5172;DHT22;2605;49.770;9.868;2022-09-09T01:04:09;14.80;99.90
5172;DHT22;2605;49.770;9.868;2022-09-09T01:06:41;14.70;99.90
5172;DHT22;2605;49.770;9.868;2022-09-09T01:09:10;14.70;99.90
5172;DHT22;2605;49.770;9.868;2022-09-09T01:11:52;14.70;99.90
5172;DHT22;2605;49.770;9.868;2022-09-09T01:14:30;14.70;99.90
5172;DHT22;2605;49.770;9.868;2022-09-09T01:17:23;14.70;99.90
5172;DHT22;2605;49.770;9.868;2022-09-09T01:20:04;14.50;99.90
5172;DHT22;2605;49.770;9.868;2022-09-09T01:22:39;14.60;99.90
5172;DHT22;2605;49.770;9.868;2022-09-09T01:27:53;14.60;99.90
5172;DHT22;2605;49.770;9.868;2022-09-09T01:30:20;14.60;99.90
5172;DHT22;2605;49.770;9.868;2022-09-09T01:32:54;14.60;99.90
5172;DHT22;2605;49.770;9.868;2022-09-09T01:35:32;14.70;99.90
5172;DHT22;2605;49.770;9.868;2022-09-09T01:37:58;14.70;99.90
5172;DHT22;2605;49.770;9.868;2022-09-09T01:40:25;14.80;99.90
5172;DHT22;2605;49.770;9.868;2022-09-09T01:42:51;14.70;99.90
5172;DHT22;2605;49.770;9.868;2022-09-09T01:45:17;14.70;99.90
5172;DHT22;2605;49.770;9.868;2022-09-09T01:47:43;14.70;99.90
5172;DHT22;2605;49.770;9.868;2022-09-09T01:50:10;14.70;99.90
5172;DHT22;2605;49.770;9.868;2022-09-09T01:52:37;14.70;99.90
5172;DHT22;2605;49.770;9.868;2022-09-09T01:55:04;14.70;99.90
5172;DHT22;2605;49.770;9.868;2022-09-09T01:57:35;14.70;99.90
5172;DHT22;2605;49.770;9.868;2022-09-09T02:00:13;14.60;99.90
5172;DHT22;2605;49.770;9.868;2022-09-09T02:05:40;14.60;99.90
5172;DHT22;2605;49.770;9.868;2022-09-09T02:08:10;14.60;99.90
5172;DHT22;2605;49.770;9.868;2022-09-09T02:10:43;14.60;99.90
5172;DHT22;2605;49.770;9.868;2022-09-09T02:13:14;14.60;99.90
5172;DHT22;2605;49.770;9.868;2022-09-09T02:15:55;14.60;99.90
5172;DHT22;2605;49.770;9.868;2022-09-09T02:18:39;14.60;99.90
5172;DHT22;2605;49.770;9.868;2022-09-09T02:21:05;14.60;99.90
5172;DHT22;2605;49.770;9.868;2022-09-09T02:23:33;14.60;99.90
5172;DHT22;2605;49.770;9.868;2022-09-09T02:26:00;14.50;99.90
5172;DHT22;2605;49.770;9.868;2022-09-09T02:28:28;14.50;99.90
5172;DHT22;2605;49.770;9.868;2022-09-09T02:30:55;14.50;99.90
5172;DHT22;2605;49.770;9.868;2022-09-09T02:33:27;14.40;99.90
5172;DHT22;2605;49.770;9.868;2022-09-09T02:35:54;14.40;99.90
5172;DHT22;2605;49.770;9.868;2022-09-09T02:38:25;14.40;99.90
5172;DHT22;2605;49.770;9.868;2022-09-09T02:40:51;14.40;99.90
5172;DHT22;2605;49.770;9.868;2022-09-09T02:43:17;14.40;99.90
5172;DHT22;2605;49.770;9.868;2022-09-09T02:51:35;14.20;99.90
5172;DHT22;2605;49.770;9.868;2022-09-09T02:54:27;14.20;99.90
5172;DHT22;2605;49.770;9.868;2022-09-09T02:56:59;14.20;99.90
5172;DHT22;2605;49.770;9.868;2022-09-09T02:59:27;14.10;99.90
5172;DHT22;2605;49.770;9.868;2022-09-09T03:01:52;14.10;99.90
5172;DHT22;2605;49.770;9.868;2022-09-09T03:04:18;14.20;99.90
5172;DHT22;2605;49.770;9.868;2022-09-09T03:06:44;14.20;99.90
5172;DHT22;2605;49.770;9.868;2022-09-09T03:09:09;14.20;99.90
5172;DHT22;2605;49.770;9.868;2022-09-09T03:11:36;14.20;99.90
5172;DHT22;2605;49.770;9.868;2022-09-09T03:14:02;14.20;99.90
5172;DHT22;2605;49.770;9.868;2022-09-09T03:16:27;14.20;99.90
5172;DHT22;2605;49.770;9.868;2022-09-09T03:18:53;14.20;99.90
5172;DHT22;2605;49.770;9.868;2022-09-09T03:21:18;14.20;99.90
5172;DHT22;2605;49.770;9.868;2022-09-09T03:23:44;14.20;99.90
5172;DHT22;2605;49.770;9.868;2022-09-09T03:26:10;14.30;99.90
5172;DHT22;2605;49.770;9.868;2022-09-09T03:28:36;14.30;99.90
5172;DHT22;2605;49.770;9.868;2022-09-09T03:31:03;14.30;99.90
5172;DHT22;2605;49.770;9.868;2022-09-09T03:33:29;14.30;99.90
5172;DHT22;2605;49.770;9.868;2022-09-09T03:35:56;14.30;99.90
5172;DHT22;2605;49.770;9.868;2022-09-09T03:38:25;14.40;99.90
5172;DHT22;2605;49.770;9.868;2022-09-09T03:40:52;14.40;99.90
5172;DHT22;2605;49.770;9.868;2022-09-09T03:43:21;14.40;99.90
5172;DHT22;2605;49.770;9.868;2022-09-09T03:45:47;14.40;99.90
5172;DHT22;2605;49.770;9.868;2022-09-09T03:48:13;14.40;99.90
5172;DHT22;2605;49.770;9.868;2022-09-09T03:50:45;14.50;99.90
5172;DHT22;2605;49.770;9.868;2022-09-09T03:53:10;14.50;99.90
5172;DHT22;2605;49.770;9.868;2022-09-09T03:55:36;14.50;99.90
5172;DHT22;2605;49.770;9.868;2022-09-09T03:58:01;14.60;99.90
5172;DHT22;2605;49.770;9.868;2022-09-09T04:00:27;14.60;99.90
5172;DHT22;2605;49.770;9.868;2022-09-09T04:02:52;14.60;99.90
5172;DHT22;2605;49.770;9.868;2022-09-09T04:05:19;14.60;99.90
5172;DHT22;2605;49.770;9.868;2022-09-09T04:07:45;14.70;99.90
5172;DHT22;2605;49.770;9.868;2022-09-09T04:10:10;14.70;99.90
5172;DHT22;2605;49.770;9.868;2022-09-09T04:12:36;14.80;99.90
5172;DHT22;2605;49.770;9.868;2022-09-09T04:15:02;14.80;99.90
5172;DHT22;2605;49.770;9.868;2022-09-09T04:17:27;14.90;99.90
5172;DHT22;2605;49.770;9.868;2022-09-09T04:19:53;14.90;99.90
5172;DHT22;2605;49.770;9.868;2022-09-09T04:22:18;14.90;99.90
5172;DHT22;2605;49.770;9.868;2022-09-09T04:24:44;14.80;99.90
5172;DHT22;2605;49.770;9.868;2022-09-09T04:27:09;14.80;99.90
5172;DHT22;2605;49.770;9.868;2022-09-09T04:29:35;14.70;99.90
5172;DHT22;2605;49.770;9.868;2022-09-09T04:32:00;14.60;99.90
5172;DHT22;2605;49.770;9.868;2022-09-09T04:34:26;14.50;99.90
5172;DHT22;2605;49.770;9.868;2022-09-09T04:36:51;14.50;99.90
5172;DHT22;2605;49.770;9.868;2022-09-09T04:39:17;14.40;99.90
5172;DHT22;2605;49.770;9.868;2022-09-09T04:41:43;14.40;99.90
5172;DHT22;2605;49.770;9.868;2022-09-09T04:44:08;14.30;99.90
5172;DHT22;2605;49.770;9.868;2022-09-09T04:46:35;14.30;99.90
5172;DHT22;2605;49.770;9.868;2022-09-09T04:49:00;14.20;99.90
5172;DHT22;2605;49.770;9.868;2022-09-09T04:51:26;14.10;99.90
5172;DHT22;2605;49.770;9.868;2022-09-09T04:53:52;14.10;99.90
5172;DHT22;2605;49.770;9.868;2022-09-09T04:56:19;14.10;99.90
5172;DHT22;2605;49.770;9.868;2022-09-09T04:58:47;14.10;99.90
5172;DHT22;2605;49.770;9.868;2022-09-09T05:01:15;14.00;99.90
5172;DHT22;2605;49.770;9.868;2022-09-09T05:03:42;14.10;99.90
5172;DHT22;2605;49.770;9.868;2022-09-09T05:06:12;14.10;99.90
5172;DHT22;2605;49.770;9.868;2022-09-09T05:08:39;14.10;99.90
5172;DHT22;2605;49.770;9.868;2022-09-09T05:11:25;14.10;99.90
5172;DHT22;2605;49.770;9.868;2022-09-09T05:13:51;14.10;99.90
5172;DHT22;2605;49.770;9.868;2022-09-09T05:16:20;14.10;99.90
5172;DHT22;2605;49.770;9.868;2022-09-09T05:18:46;14.10;99.90
5172;DHT22;2605;49.770;9.868;2022-09-09T05:21:14;14.20;99.90
5172;DHT22;2605;49.770;9.868;2022-09-09T05:23:40;14.20;99.90
5172;DHT22;2605;49.770;9.868;2022-09-09T05:26:08;14.30;99.90
5172;DHT22;2605;49.770;9.868;2022-09-09T05:28:35;14.40;99.90
5172;DHT22;2605;49.770;9.868;2022-09-09T05:31:06;14.50;99.90
5172;DHT22;2605;49.770;9.868;2022-09-09T05:33:34;14.50;99.90
5172;DHT22;2605;49.770;9.868;2022-09-09T05:36:02;14.70;99.90
5172;DHT22;2605;49.770;9.868;2022-09-09T05:38:30;14.70;99.90
5172;DHT22;2605;49.770;9.868;2022-09-09T05:40:56;14.80;99.90
5172;DHT22;2605;49.770;9.868;2022-09-09T05:43:23;14.80;99.90
5172;DHT22;2605;49.770;9.868;2022-09-09T05:46:08;14.90;99.90
5172;DHT22;2605;49.770;9.868;2022-09-09T05:48:35;14.90;99.90
5172;DHT22;2605;49.770;9.868;2022-09-09T05:51:03;15.00;99.90
5172;DHT22;2605;49.770;9.868;2022-09-09T05:53:29;15.00;99.90
5172;DHT22;2605;49.770;9.868;2022-09-09T05:56:13;15.00;99.90
5172;DHT22;2605;49.770;9.868;2022-09-09T05:58:40;15.10;99.90
5172;DHT22;2605;49.770;9.868;2022-09-09T06:01:14;15.20;99.90
5172;DHT22;2605;49.770;9.868;2022-09-09T06:03:41;15.10;99.90
5172;DHT22;2605;49.770;9.868;2022-09-09T06:06:12;15.20;99.90
5172;DHT22;2605;49.770;9.868;2022-09-09T06:08:40;15.20;99.90
5172;DHT22;2605;49.770;9.868;2022-09-09T06:11:12;15.10;99.90
5172;DHT22;2605;49.770;9.868;2022-09-09T06:13:38;15.20;99.90
5172;DHT22;2605;49.770;9.868;2022-09-09T06:16:09;15.20;99.90
5172;DHT22;2605;49.770;9.868;2022-09-09T06:18:36;15.30;99.90
5172;DHT22;2605;49.770;9.868;2022-09-09T06:21:04;15.30;99.90
5172;DHT22;2605;49.770;9.868;2022-09-09T06:23:32;15.20;99.90
5172;DHT22;2605;49.770;9.868;2022-09-09T06:26:06;15.30;99.90
5172;DHT22;2605;49.770;9.868;2022-09-09T06:28:33;15.30;99.90
5172;DHT22;2605;49.770;9.868;2022-09-09T06:31:00;15.30;99.90
5172;DHT22;2605;49.770;9.868;2022-09-09T06:33:26;15.40;99.90
5172;DHT22;2605;49.770;9.868;2022-09-09T06:35:53;15.50;99.90
5172;DHT22;2605;49.770;9.868;2022-09-09T06:38:19;15.50;99.90
5172;DHT22;2605;49.770;9.868;2022-09-09T06:40:55;15.60;99.90
5172;DHT22;2605;49.770;9.868;2022-09-09T06:43:22;15.70;99.90
5172;DHT22;2605;49.770;9.868;2022-09-09T06:45:58;15.80;99.90
5172;DHT22;2605;49.770;9.868;2022-09-09T06:48:24;15.90;99.90
5172;DHT22;2605;49.770;9.868;2022-09-09T06:51:01;16.00;99.90
5172;DHT22;2605;49.770;9.868;2022-09-09T06:53:28;16.10;99.90
5172;DHT22;2605;49.770;9.868;2022-09-09T06:55:53;16.00;99.90
5172;DHT22;2605;49.770;9.868;2022-09-09T06:58:20;16.00;99.90
5172;DHT22;2605;49.770;9.868;2022-09-09T07:00:47;15.90;99.90
5172;DHT22;2605;49.770;9.868;2022-09-09T07:03:13;15.80;99.90
5172;DHT22;2605;49.770;9.868;2022-09-09T07:05:41;16.00;99.90
5172;DHT22;2605;49.770;9.868;2022-09-09T07:08:07;16.00;99.90
5172;DHT22;2605;49.770;9.868;2022-09-09T07:10:32;16.10;99.90
5172;DHT22;2605;49.770;9.868;2022-09-09T07:12:59;16.20;99.90
5172;DHT22;2605;49.770;9.868;2022-09-09T07:15:25;16.50;99.90
5172;DHT22;2605;49.770;9.868;2022-09-09T07:17:51;16.60;99.90
5172;DHT22;2605;49.770;9.868;2022-09-09T07:20:19;16.80;99.90
5172;DHT22;2605;49.770;9.868;2022-09-09T07:22:45;17.10;99.90
5172;DHT22;2605;49.770;9.868;2022-09-09T07:25:11;17.30;99.90
5172;DHT22;2605;49.770;9.868;2022-09-09T07:27:36;17.20;99.90
5172;DHT22;2605;49.770;9.868;2022-09-09T07:30:03;17.10;99.90
5172;DHT22;2605;49.770;9.868;2022-09-09T07:32:29;17.20;99.90
5172;DHT22;2605;49.770;9.868;2022-09-09T07:34:56;17.10;99.90
5172;DHT22;2605;49.770;9.868;2022-09-09T07:37:23;17.00;99.90
5172;DHT22;2605;49.770;9.868;2022-09-09T07:39:49;16.80;99.90
5172;DHT22;2605;49.770;9.868;2022-09-09T07:42:16;16.70;99.90
5172;DHT22;2605;49.770;9.868;2022-09-09T07:44:42;16.80;99.90
5172;DHT22;2605;49.770;9.868;2022-09-09T07:47:07;16.80;99.90
5172;DHT22;2605;49.770;9.868;2022-09-09T07:49:33;16.90;99.90
5172;DHT22;2605;49.770;9.868;2022-09-09T07:51:59;17.00;99.90
5172;DHT22;2605;49.770;9.868;2022-09-09T07:54:25;17.20;99.90
5172;DHT22;2605;49.770;9.868;2022-09-09T07:56:51;17.30;99.90
5172;DHT22;2605;49.770;9.868;2022-09-09T07:59:17;17.50;99.90
5172;DHT22;2605;49.770;9.868;2022-09-09T08:01:46;17.80;99.90
5172;DHT22;2605;49.770;9.868;2022-09-09T08:04:15;18.00;99.90
5172;DHT22;2605;49.770;9.868;2022-09-09T08:06:44;18.30;99.90
5172;DHT22;2605;49.770;9.868;2022-09-09T08:09:12;18.50;99.90
5172;DHT22;2605;49.770;9.868;2022-09-09T08:11:39;18.90;99.90
5172;DHT22;2605;49.770;9.868;2022-09-09T08:14:07;19.10;99.90
5172;DHT22;2605;49.770;9.868;2022-09-09T08:16:42;19.30;99.90
5172;DHT22;2605;49.770;9.868;2022-09-09T08:19:08;19.30;99.90
5172;DHT22;2605;49.770;9.868;2022-09-09T08:21:36;19.40;99.90
5172;DHT22;2605;49.770;9.868;2022-09-09T08:24:02;19.30;99.90
5172;DHT22;2605;49.770;9.868;2022-09-09T08:26:36;19.00;99.90
5172;DHT22;2605;49.770;9.868;2022-09-09T08:29:04;19.00;99.90
5172;DHT22;2605;49.770;9.868;2022-09-09T08:31:38;18.90;99.90
5172;DHT22;2605;49.770;9.868;2022-09-09T08:34:05;18.80;99.90
5172;DHT22;2605;49.770;9.868;2022-09-09T08:36:42;18.70;99.90
5172;DHT22;2605;49.770;9.868;2022-09-09T08:39:09;18.60;99.90
5172;DHT22;2605;49.770;9.868;2022-09-09T08:42:13;18.60;99.90
5172;DHT22;2605;49.770;9.868;2022-09-09T08:45:12;18.60;99.90
5172;DHT22;2605;49.770;9.868;2022-09-09T08:50:26;18.90;99.90
5172;DHT22;2605;49.770;9.868;2022-09-09T08:58:23;19.40;99.90
5172;DHT22;2605;49.770;9.868;2022-09-09T09:07:10;19.60;99.90
5172;DHT22;2605;49.770;9.868;2022-09-09T09:09:54;19.90;99.90
5172;DHT22;2605;49.770;9.868;2022-09-09T09:12:27;20.30;99.90
5172;DHT22;2605;49.770;9.868;2022-09-09T09:14:54;20.50;99.90
5172;DHT22;2605;49.770;9.868;2022-09-09T09:17:24;20.20;99.90
5172;DHT22;2605;49.770;9.868;2022-09-09T09:19:50;20.40;99.90
5172;DHT22;2605;49.770;9.868;2022-09-09T09:22:19;20.40;99.90
5172;DHT22;2605;49.770;9.868;2022-09-09T09:24:54;20.50;99.90
5172;DHT22;2605;49.770;9.868;2022-09-09T09:29:56;20.50;99.90
5172;DHT22;2605;49.770;9.868;2022-09-09T09:32:24;20.70;99.90
5172;DHT22;2605;49.770;9.868;2022-09-09T09:34:57;20.80;99.90
5172;DHT22;2605;49.770;9.868;2022-09-09T09:37:34;21.10;99.90
5172;DHT22;2605;49.770;9.868;2022-09-09T09:40:10;21.70;99.90
5172;DHT22;2605;49.770;9.868;2022-09-09T09:42:37;21.80;99.90
5172;DHT22;2605;49.770;9.868;2022-09-09T09:47:58;21.80;99.90
5172;DHT22;2605;49.770;9.868;2022-09-09T09:50:24;22.00;99.90
5172;DHT22;2605;49.770;9.868;2022-09-09T09:52:57;22.20;99.90
5172;DHT22;2605;49.770;9.868;2022-09-09T09:55:24;22.40;99.90
5172;DHT22;2605;49.770;9.868;2022-09-09T09:57:50;22.50;99.90
5172;DHT22;2605;49.770;9.868;2022-09-09T10:00:22;22.90;99.90
5172;DHT22;2605;49.770;9.868;2022-09-09T10:02:48;23.20;99.90
5172;DHT22;2605;49.770;9.868;2022-09-09T10:05:26;23.30;99.90
5172;DHT22;2605;49.770;9.868;2022-09-09T10:10:52;23.90;99.90
5172;DHT22;2605;49.770;9.868;2022-09-09T10:13:37;24.50;99.90
5172;DHT22;2605;49.770;9.868;2022-09-09T10:16:24;24.80;99.90
5172;DHT22;2605;49.770;9.868;2022-09-09T10:19:03;25.00;99.90
5172;DHT22;2605;49.770;9.868;2022-09-09T10:21:57;24.50;99.90
5172;DHT22;2605;49.770;9.868;2022-09-09T10:30:16;24.30;99.90
5172;DHT22;2605;49.770;9.868;2022-09-09T10:38:17;19.70;99.90
5172;DHT22;2605;49.770;9.868;2022-09-09T10:41:16;15.40;99.90
5172;DHT22;2605;49.770;9.868;2022-09-09T10:44:02;13.10;99.90
5172;DHT22;2605;49.770;9.868;2022-09-09T10:47:05;12.60;99.90
5172;DHT22;2605;49.770;9.868;2022-09-09T10:49:55;12.80;99.90
5172;DHT22;2605;49.770;9.868;2022-09-09T10:52:32;13.10;99.90
5172;DHT22;2605;49.770;9.868;2022-09-09T10:55:13;13.30;99.90
5172;DHT22;2605;49.770;9.868;2022-09-09T10:57:50;13.20;99.90
5172;DHT22;2605;49.770;9.868;2022-09-09T11:02:56;13.90;99.90
5172;DHT22;2605;49.770;9.868;2022-09-09T11:05:36;14.20;99.90
5172;DHT22;2605;49.770;9.868;2022-09-09T11:08:24;14.70;99.90
5172;DHT22;2605;49.770;9.868;2022-09-09T11:13:42;15.30;99.90
5172;DHT22;2605;49.770;9.868;2022-09-09T11:16:39;15.70;99.90
5172;DHT22;2605;49.770;9.868;2022-09-09T11:21:45;16.70;99.90
5172;DHT22;2605;49.770;9.868;2022-09-09T11:24:21;16.90;99.90
5172;DHT22;2605;49.770;9.868;2022-09-09T11:30:15;17.40;99.90
5172;DHT22;2605;49.770;9.868;2022-09-09T11:33:03;17.60;99.90
5172;DHT22;2605;49.770;9.868;2022-09-09T11:36:08;17.90;99.90
5172;DHT22;2605;49.770;9.868;2022-09-09T11:38:45;18.20;99.90
5172;DHT22;2605;49.770;9.868;2022-09-09T11:41:13;18.40;99.90
5172;DHT22;2605;49.770;9.868;2022-09-09T11:43:47;18.50;99.90
5172;DHT22;2605;49.770;9.868;2022-09-09T11:46:15;18.70;99.90
5172;DHT22;2605;49.770;9.868;2022-09-09T11:48:45;18.70;99.90
5172;DHT22;2605;49.770;9.868;2022-09-09T11:53:57;18.90;99.90
5172;DHT22;2605;49.770;9.868;2022-09-09T11:56:41;18.90;99.90
5172;DHT22;2605;49.770;9.868;2022-09-09T11:59:25;18.90;99.90
5172;DHT22;2605;49.770;9.868;2022-09-09T12:01:59;19.10;99.90
5172;DHT22;2605;49.770;9.868;2022-09-09T12:04:38;19.20;99.90
5172;DHT22;2605;49.770;9.868;2022-09-09T12:07:35;19.50;99.90
5172;DHT22;2605;49.770;9.868;2022-09-09T12:10:19;19.60;99.90
5172;DHT22;2605;49.770;9.868;2022-09-09T12:12:45;19.90;99.90
5172;DHT22;2605;49.770;9.868;2022-09-09T12:17:43;20.70;99.90
5172;DHT22;2605;49.770;9.868;2022-09-09T12:20:16;20.90;99.90
5172;DHT22;2605;49.770;9.868;2022-09-09T12:23:07;21.00;99.90
5172;DHT22;2605;49.770;9.868;2022-09-09T12:33:44;21.20;99.90
5172;DHT22;2605;49.770;9.868;2022-09-09T12:36:19;21.20;99.90
5172;DHT22;2605;49.770;9.868;2022-09-09T12:38:45;21.00;99.90
5172;DHT22;2605;49.770;9.868;2022-09-09T12:41:27;20.80;99.90
5172;DHT22;2605;49.770;9.868;2022-09-09T12:44:08;20.80;99.90
5172;DHT22;2605;49.770;9.868;2022-09-09T12:46:36;20.80;99.90
5172;DHT22;2605;49.770;9.868;2022-09-09T12:49:03;20.80;99.90
5172;DHT22;2605;49.770;9.868;2022-09-09T12:51:31;20.80;99.90
5172;DHT22;2605;49.770;9.868;2022-09-09T12:53:58;20.90;99.90
5172;DHT22;2605;49.770;9.868;2022-09-09T12:56:26;21.00;99.90
5172;DHT22;2605;49.770;9.868;2022-09-09T12:58:54;21.20;99.90
5172;DHT22;2605;49.770;9.868;2022-09-09T13:01:25;21.50;99.90
5172;DHT22;2605;49.770;9.868;2022-09-09T13:03:51;21.70;99.90
5172;DHT22;2605;49.770;9.868;2022-09-09T13:06:23;21.80;99.90
5172;DHT22;2605;49.770;9.868;2022-09-09T13:08:51;21.90;99.90
5172;DHT22;2605;49.770;9.868;2022-09-09T13:11:26;22.10;99.90
5172;DHT22;2605;49.770;9.868;2022-09-09T13:13:55;22.40;99.90
5172;DHT22;2605;49.770;9.868;2022-09-09T13:16:34;22.80;99.90
5172;DHT22;2605;49.770;9.868;2022-09-09T13:19:07;23.10;99.90
5172;DHT22;2605;49.770;9.868;2022-09-09T13:21:39;23.30;99.90
5172;DHT22;2605;49.770;9.868;2022-09-09T13:24:34;23.20;99.90
5172;DHT22;2605;49.770;9.868;2022-09-09T13:27:03;22.60;99.90
5172;DHT22;2605;49.770;9.868;2022-09-09T13:29:29;22.90;99.90
5172;DHT22;2605;49.770;9.868;2022-09-09T13:32:16;23.00;99.90
5172;DHT22;2605;49.770;9.868;2022-09-09T13:34:54;22.70;99.90
5172;DHT22;2605;49.770;9.868;2022-09-09T13:37:39;22.40;99.90
5172;DHT22;2605;49.770;9.868;2022-09-09T13:40:19;22.30;99.90
5172;DHT22;2605;49.770;9.868;2022-09-09T13:42:46;22.60;99.90
5172;DHT22;2605;49.770;9.868;2022-09-09T13:45:22;23.00;99.90
5172;DHT22;2605;49.770;9.868;2022-09-09T13:47:51;23.00;99.90
5172;DHT22;2605;49.770;9.868;2022-09-09T13:50:27;22.90;99.90
5172;DHT22;2605;49.770;9.868;2022-09-09T13:52:55;22.90;99.90
5172;DHT22;2605;49.770;9.868;2022-09-09T13:55:22;22.90;99.90
5172;DHT22;2605;49.770;9.868;2022-09-09T13:57:52;23.10;99.90
5172;DHT22;2605;49.770;9.868;2022-09-09T14:00:18;23.00;99.90
5172;DHT22;2605;49.770;9.868;2022-09-09T14:02:44;23.20;99.90
5172;DHT22;2605;49.770;9.868;2022-09-09T14:05:10;23.20;99.90
5172;DHT22;2605;49.770;9.868;2022-09-09T14:07:37;23.30;99.90
5172;DHT22;2605;49.770;9.868;2022-09-09T14:10:04;23.20;99.90
5172;DHT22;2605;49.770;9.868;2022-09-09T14:12:30;23.00;99.90
5172;DHT22;2605;49.770;9.868;2022-09-09T14:14:55;22.90;99.90
5172;DHT22;2605;49.770;9.868;2022-09-09T14:17:21;23.00;99.90
5172;DHT22;2605;49.770;9.868;2022-09-09T14:19:47;23.40;99.90
5172;DHT22;2605;49.770;9.868;2022-09-09T14:22:13;23.60;99.90
5172;DHT22;2605;49.770;9.868;2022-09-09T14:24:42;23.40;99.90
5172;DHT22;2605;49.770;9.868;2022-09-09T14:27:07;22.70;99.90
5172;DHT22;2605;49.770;9.868;2022-09-09T14:29:33;22.30;99.90
5172;DHT22;2605;49.770;9.868;2022-09-09T14:31:59;22.10;99.90
5172;DHT22;2605;49.770;9.868;2022-09-09T14:34:26;21.50;99.90
5172;DHT22;2605;49.770;9.868;2022-09-09T14:36:52;21.30;99.90
5172;DHT22;2605;49.770;9.868;2022-09-09T14:39:17;20.90;99.90
5172;DHT22;2605;49.770;9.868;2022-09-09T14:41:43;20.70;99.90
5172;DHT22;2605;49.770;9.868;2022-09-09T14:44:08;20.60;99.90
5172;DHT22;2605;49.770;9.868;2022-09-09T14:46:34;19.20;99.90
5172;DHT22;2605;49.770;9.868;2022-09-09T14:48:59;15.90;99.90
5172;DHT22;2605;49.770;9.868;2022-09-09T14:51:25;13.30;99.90
5172;DHT22;2605;49.770;9.868;2022-09-09T14:53:58;12.80;99.90
5172;DHT22;2605;49.770;9.868;2022-09-09T14:56:27;13.00;99.90
5172;DHT22;2605;49.770;9.868;2022-09-09T14:58:54;13.10;99.90
5172;DHT22;2605;49.770;9.868;2022-09-09T15:01:21;13.90;99.90
5172;DHT22;2605;49.770;9.868;2022-09-09T15:03:56;14.20;99.90
5172;DHT22;2605;49.770;9.868;2022-09-09T15:06:23;14.60;99.90
5172;DHT22;2605;49.770;9.868;2022-09-09T15:08:51;15.10;99.90
5172;DHT22;2605;49.770;9.868;2022-09-09T15:11:17;15.20;99.90
5172;DHT22;2605;49.770;9.868;2022-09-09T15:13:43;15.00;99.90
5172;DHT22;2605;49.770;9.868;2022-09-09T15:16:13;15.00;99.90
5172;DHT22;2605;49.770;9.868;2022-09-09T15:18:40;15.10;99.90
5172;DHT22;2605;49.770;9.868;2022-09-09T15:21:14;15.50;99.90
5172;DHT22;2605;49.770;9.868;2022-09-09T15:23:40;15.80;99.90
5172;DHT22;2605;49.770;9.868;2022-09-09T15:26:06;16.40;99.90
5172;DHT22;2605;49.770;9.868;2022-09-09T15:28:33;16.70;99.90
5172;DHT22;2605;49.770;9.868;2022-09-09T15:31:12;17.10;99.90
5172;DHT22;2605;49.770;9.868;2022-09-09T15:33:40;18.00;99.90
5172;DHT22;2605;49.770;9.868;2022-09-09T15:38:58;20.50;99.90
5172;DHT22;2605;49.770;9.868;2022-09-09T15:41:24;20.70;99.90
5172;DHT22;2605;49.770;9.868;2022-09-09T15:43:52;20.20;99.90
5172;DHT22;2605;49.770;9.868;2022-09-09T15:46:26;19.90;99.90
5172;DHT22;2605;49.770;9.868;2022-09-09T15:48:56;20.50;99.90
5172;DHT22;2605;49.770;9.868;2022-09-09T15:51:23;22.50;99.90
5172;DHT22;2605;49.770;9.868;2022-09-09T15:53:51;24.60;99.90
5172;DHT22;2605;49.770;9.868;2022-09-09T15:56:18;26.20;99.90
5172;DHT22;2605;49.770;9.868;2022-09-09T15:58:43;27.00;99.90
5172;DHT22;2605;49.770;9.868;2022-09-09T16:01:10;26.60;99.90
5172;DHT22;2605;49.770;9.868;2022-09-09T16:03:40;27.40;99.90
5172;DHT22;2605;49.770;9.868;2022-09-09T16:06:14;25.80;99.90
5172;DHT22;2605;49.770;9.868;2022-09-09T16:08:42;23.60;99.90
5172;DHT22;2605;49.770;9.868;2022-09-09T16:11:16;23.70;99.90
5172;DHT22;2605;49.770;9.868;2022-09-09T16:13:43;25.60;99.90
5172;DHT22;2605;49.770;9.868;2022-09-09T16:16:10;27.30;99.90
5172;DHT22;2605;49.770;9.868;2022-09-09T16:18:42;28.10;99.90
5172;DHT22;2605;49.770;9.868;2022-09-09T16:21:13;27.90;99.90
5172;DHT22;2605;49.770;9.868;2022-09-09T16:23:38;26.50;99.90
5172;DHT22;2605;49.770;9.868;2022-09-09T16:26:04;25.00;99.90
5172;DHT22;2605;49.770;9.868;2022-09-09T16:28:30;23.30;99.90
5172;DHT22;2605;49.770;9.868;2022-09-09T16:30:56;22.10;99.90
5172;DHT22;2605;49.770;9.868;2022-09-09T16:33:23;21.30;99.90
5172;DHT22;2605;49.770;9.868;2022-09-09T16:35:49;20.70;99.90
5172;DHT22;2605;49.770;9.868;2022-09-09T16:38:15;20.10;99.90
5172;DHT22;2605;49.770;9.868;2022-09-09T16:40:40;19.80;99.90
5172;DHT22;2605;49.770;9.868;2022-09-09T16:43:07;19.30;99.90
5172;DHT22;2605;49.770;9.868;2022-09-09T16:45:34;18.70;99.90
5172;DHT22;2605;49.770;9.868;2022-09-09T16:48:06;18.30;99.90
5172;DHT22;2605;49.770;9.868;2022-09-09T16:50:31;18.00;99.90
5172;DHT22;2605;49.770;9.868;2022-09-09T16:52:57;17.80;99.90
5172;DHT22;2605;49.770;9.868;2022-09-09T16:55:23;17.60;99.90
5172;DHT22;2605;49.770;9.868;2022-09-09T16:57:49;17.40;99.90
5172;DHT22;2605;49.770;9.868;2022-09-09T17:00:15;17.40;99.90
5172;DHT22;2605;49.770;9.868;2022-09-09T17:02:42;17.30;99.90
5172;DHT22;2605;49.770;9.868;2022-09-09T17:05:08;17.20;99.90
5172;DHT22;2605;49.770;9.868;2022-09-09T17:07:34;17.20;99.90
5172;DHT22;2605;49.770;9.868;2022-09-09T17:10:01;17.00;99.90
5172;DHT22;2605;49.770;9.868;2022-09-09T17:12:27;16.80;99.90
5172;DHT22;2605;49.770;9.868;2022-09-09T17:14:52;16.80;99.90
5172;DHT22;2605;49.770;9.868;2022-09-09T17:17:18;16.70;99.90
5172;DHT22;2605;49.770;9.868;2022-09-09T17:19:44;16.70;99.90
5172;DHT22;2605;49.770;9.868;2022-09-09T17:22:09;16.60;99.90
5172;DHT22;2605;49.770;9.868;2022-09-09T17:24:35;16.60;99.90
5172;DHT22;2605;49.770;9.868;2022-09-09T17:27:03;16.50;99.90
5172;DHT22;2605;49.770;9.868;2022-09-09T17:29:29;16.50;99.90
5172;DHT22;2605;49.770;9.868;2022-09-09T17:31:54;16.50;99.90
5172;DHT22;2605;49.770;9.868;2022-09-09T17:34:20;16.40;99.90
5172;DHT22;2605;49.770;9.868;2022-09-09T17:36:46;16.30;99.90
5172;DHT22;2605;49.770;9.868;2022-09-09T17:39:12;16.40;99.90
5172;DHT22;2605;49.770;9.868;2022-09-09T17:41:40;16.40;99.90
5172;DHT22;2605;49.770;9.868;2022-09-09T17:44:07;16.40;99.90
5172;DHT22;2605;49.770;9.868;2022-09-09T17:46:34;16.30;99.90
5172;DHT22;2605;49.770;9.868;2022-09-09T17:49:03;16.40;99.90